Time;durP1;ratioP1;P1;durP2;ratioP2;P2;SDS_P1;SDS_P2;PMS_P1;PMS_P2;Temp;Humidity;BMP_temperature;BMP_pressure;BME280_temperature;BME280_humidity;BME280_pressure;Samples;Min_cycle;Max_cycle;Signal;HPM_P1;HPM_P2
2022/10/26 00:01:53;;;;;;;10.50;8.20;;;;;;;11.90;73.82;100684.11;108479;1278;24733;-80
2022/10/26 00:04:22;;;;;;;12.60;7.50;;;;;;;11.89;73.90;100682.58;108517;1278;23757;-80
2022/10/26 00:06:51;;;;;;;10.10;7.10;;;;;;;11.88;73.91;100683.66;108110;1284;22028;-80
2022/10/26 00:09:19;;;;;;;9.70;6.80;;;;;;;11.86;73.86;100682.33;108263;1285;21959;-79
2022/10/26 00:11:48;;;;;;;14.50;7.70;;;;;;;11.83;73.84;100681.55;107936;1285;23679;-80
2022/10/26 00:14:17;;;;;;;10.00;7.50;;;;;;;11.81;73.79;100685.48;108011;1287;22057;-79
2022/10/26 00:16:46;;;;;;;14.10;7.80;;;;;;;11.79;73.84;100686.27;108178;1284;23118;-80
2022/10/26 00:19:15;;;;;;;10.10;7.50;;;;;;;11.77;74.01;100684.94;108366;1280;21969;-79
2022/10/26 00:21:43;;;;;;;12.30;8.10;;;;;;;11.76;74.00;100687.42;108379;1280;21942;-80
2022/10/26 00:24:13;;;;;;;10.60;8.30;;;;;;;11.74;74.04;100690.79;108224;1274;21955;-80
2022/10/26 00:26:42;;;;;;;13.10;7.80;;;;;;;11.73;73.99;100694.86;108742;1274;22795;-80
2022/10/26 00:29:11;;;;;;;17.30;8.40;;;;;;;11.71;73.96;100695.63;108728;1274;21956;-79
2022/10/26 00:31:40;;;;;;;14.60;8.30;;;;;;;11.69;73.97;100693.08;108711;1275;23679;-80
2022/10/26 00:34:11;;;;;;;14.40;7.80;;;;;;;11.66;73.91;100701.92;108777;1274;23047;-79
2022/10/26 00:36:39;;;;;;;14.10;8.70;;;;;;;11.62;73.82;100698.21;108706;1274;23461;-79
2022/10/26 00:39:12;;;;;;;9.60;7.50;;;;;;;11.58;73.75;100700.80;108738;1273;21976;-79
2022/10/26 00:41:41;;;;;;;16.80;9.50;;;;;;;11.53;73.75;100700.27;108386;1280;23714;-80
2022/10/26 00:44:47;;;;;;;10.70;8.10;;;;;;;11.48;73.67;100696.48;108384;1280;21954;-80
2022/10/26 00:47:39;;;;;;;11.30;8.70;;;;;;;11.41;73.65;100698.13;108517;1280;22078;-80
2022/10/26 00:50:17;;;;;;;13.80;8.40;;;;;;;11.34;73.81;100695.39;107949;1288;21959;-80
2022/10/26 00:52:49;;;;;;;15.50;10.60;;;;;;;11.31;73.82;100700.56;107932;1288;23739;-80
2022/10/26 00:55:25;;;;;;;14.40;8.80;;;;;;;11.27;73.80;100698.60;107849;1288;21962;-81
2022/10/26 00:57:54;;;;;;;21.50;13.10;;;;;;;11.23;73.79;100696.99;107901;1287;21958;-80
2022/10/26 01:00:23;;;;;;;15.60;12.00;;;;;;;11.19;73.86;100696.41;107988;1283;23648;-81
2022/10/26 01:02:56;;;;;;;14.40;9.20;;;;;;;11.16;73.94;100700.70;108329;1280;21941;-81
2022/10/26 01:05:26;;;;;;;12.40;9.40;;;;;;;11.14;74.04;100697.31;107938;1285;23026;-81
2022/10/26 01:07:55;;;;;;;13.70;8.80;;;;;;;11.13;74.21;100698.90;108037;1280;21945;-80
2022/10/26 01:10:25;;;;;;;14.90;10.30;;;;;;;11.12;74.20;100701.20;108508;1280;22186;-80
2022/10/26 01:12:56;;;;;;;14.20;9.70;;;;;;;11.11;74.30;100703.85;108355;1280;22179;-81
2022/10/26 01:15:50;;;;;;;15.30;9.30;;;;;;;11.10;74.40;100705.63;108409;1281;23900;-80
2022/10/26 01:18:30;;;;;;;11.90;7.70;;;;;;;11.08;74.49;100708.81;108215;1285;21952;-79
2022/10/26 01:21:29;;;;;;;12.80;9.80;;;;;;;11.06;74.45;100709.77;108209;1286;23100;-79
2022/10/26 01:24:22;;;;;;;12.50;9.60;;;;;;;11.01;74.38;100706.80;108402;1281;21947;-81
2022/10/26 01:27:22;;;;;;;15.50;9.10;;;;;;;10.97;74.43;100705.18;108427;1280;21948;-81
2022/10/26 01:30:27;;;;;;;13.70;9.50;;;;;;;10.92;74.46;100705.02;108549;1280;21942;-80
2022/10/26 01:33:36;;;;;;;14.30;9.10;;;;;;;10.87;74.57;100703.27;108574;1280;23026;-80
2022/10/26 01:36:26;;;;;;;12.10;9.40;;;;;;;10.84;74.74;100700.92;108559;1275;21987;-80
2022/10/26 01:39:35;;;;;;;14.80;9.10;;;;;;;10.85;74.88;100699.85;108576;1274;21927;-80
2022/10/26 01:42:07;;;;;;;12.30;10.50;;;;;;;10.85;75.12;100696.02;108619;1274;21959;-81
2022/10/26 01:44:48;;;;;;;14.70;9.80;;;;;;;10.87;75.00;100693.52;108671;1274;21978;-81
2022/10/26 01:47:19;;;;;;;13.40;10.00;;;;;;;10.88;74.90;100697.50;108647;1274;22386;-80
2022/10/26 01:49:57;;;;;;;15.90;8.80;;;;;;;10.88;74.90;100698.89;108701;1274;23050;-80
2022/10/26 01:52:27;;;;;;;14.70;10.10;;;;;;;10.87;74.94;100703.95;108778;1274;23596;-80
2022/10/26 01:55:06;;;;;;;13.60;9.40;;;;;;;10.87;74.89;100703.45;108460;1280;21936;-80
2022/10/26 01:57:37;;;;;;;13.50;10.40;;;;;;;10.86;74.77;100701.05;108615;1280;23458;-80
2022/10/26 02:00:11;;;;;;;11.40;10.10;;;;;;;10.84;74.69;100700.41;108243;1280;21946;-80
2022/10/26 02:03:03;;;;;;;11.20;9.70;;;;;;;10.82;74.80;100701.01;108488;1280;23704;-80
2022/10/26 02:06:04;;;;;;;12.30;9.80;;;;;;;10.79;74.86;100699.89;108520;1280;21944;-81
2022/10/26 02:08:51;;;;;;;14.90;9.70;;;;;;;10.75;74.88;100697.92;108386;1280;21945;-81
2022/10/26 02:11:40;;;;;;;14.20;9.90;;;;;;;10.73;74.96;100700.44;108415;1278;23063;-80
2022/10/26 02:14:36;;;;;;;12.20;10.20;;;;;;;10.71;74.99;100700.13;108840;1274;21941;-80
2022/10/26 02:17:15;;;;;;;15.50;13.80;;;;;;;10.70;74.94;100701.75;108807;1272;21976;-82
2022/10/26 02:19:53;;;;;;;17.90;16.10;;;;;;;10.69;74.92;100697.77;108715;1275;21951;-81
2022/10/26 02:22:44;;;;;;;17.40;15.10;;;;;;;10.66;74.79;100699.08;108786;1275;21957;-80
2022/10/26 02:25:29;;;;;;;17.10;14.60;;;;;;;10.60;74.73;100702.08;108393;1280;22323;-79
2022/10/26 02:28:06;;;;;;;16.00;13.40;;;;;;;10.56;74.69;100704.46;108294;1283;23088;-81
2022/10/26 02:30:37;;;;;;;14.00;11.20;;;;;;;10.53;74.71;100706.11;108411;1280;21952;-80
2022/10/26 02:33:11;;;;;;;12.70;10.90;;;;;;;10.52;74.71;100709.11;107945;1288;23070;-79
2022/10/26 02:35:46;;;;;;;14.50;11.70;;;;;;;10.50;74.69;100711.08;108004;1286;21944;-79
2022/10/26 02:38:19;;;;;;;11.90;10.30;;;;;;;10.49;74.72;100710.95;108004;1286;22513;-79
2022/10/26 02:40:50;;;;;;;18.20;16.40;;;;;;;10.47;74.71;100714.48;107998;1286;22019;-80
2022/10/26 02:43:22;;;;;;;20.00;17.60;;;;;;;10.43;74.63;100710.96;108299;1282;22051;-80
2022/10/26 02:45:58;;;;;;;19.50;17.60;;;;;;;10.38;74.49;100713.37;108293;1286;23722;-80
2022/10/26 02:48:27;;;;;;;21.70;14.90;;;;;;;10.33;74.40;100715.61;108223;1286;22026;-79
2022/10/26 02:51:11;;;;;;;15.00;13.50;;;;;;;10.27;74.36;100720.31;108160;1281;22059;-80
2022/10/26 02:53:52;;;;;;;17.40;14.40;;;;;;;10.25;74.40;100722.09;108399;1280;21975;-81
2022/10/26 02:56:30;;;;;;;12.40;11.20;;;;;;;10.22;74.58;100722.37;108528;1280;21928;-81
2022/10/26 02:59:04;;;;;;;14.90;13.30;;;;;;;10.18;74.59;100718.82;108259;1286;21951;-80
2022/10/26 03:01:34;;;;;;;12.40;11.10;;;;;;;10.15;74.62;100720.98;108196;1285;23096;-80
2022/10/26 03:04:03;;;;;;;15.60;11.80;;;;;;;10.12;74.70;100716.91;108345;1280;21942;-81
2022/10/26 03:06:32;;;;;;;11.80;10.50;;;;;;;10.12;74.72;100716.23;107854;1286;24415;-82
2022/10/26 03:09:01;;;;;;;13.50;12.00;;;;;;;10.09;74.54;100715.25;107801;1288;23040;-80
2022/10/26 03:11:30;;;;;;;22.00;15.70;;;;;;;10.05;74.51;100713.64;107793;1287;21761;-80
2022/10/26 03:13:59;;;;;;;19.10;15.50;;;;;;;10.02;74.54;100712.68;107683;1289;21969;-81
2022/10/26 03:16:27;;;;;;;17.30;13.90;;;;;;;10.00;74.52;100716.07;107741;1287;22060;-81
2022/10/26 03:18:56;;;;;;;15.20;13.60;;;;;;;9.96;74.51;100710.79;108046;1284;23067;-81
2022/10/26 03:21:25;;;;;;;15.80;14.20;;;;;;;9.93;74.49;100713.45;108172;1286;23891;-81
2022/10/26 03:23:54;;;;;;;16.70;15.00;;;;;;;9.90;74.44;100716.33;108225;1281;24353;-81
2022/10/26 03:26:23;;;;;;;18.10;16.30;;;;;;;9.89;74.49;100715.70;108449;1279;23090;-82
2022/10/26 03:28:52;;;;;;;17.50;15.90;;;;;;;9.86;74.57;100713.85;108754;1275;23615;-82
2022/10/26 03:31:20;;;;;;;18.60;16.70;;;;;;;9.84;74.52;100718.77;108752;1267;23610;-80
2022/10/26 03:33:49;;;;;;;18.00;16.30;;;;;;;9.83;74.54;100720.72;108806;1274;23217;-81
2022/10/26 03:36:18;;;;;;;18.50;16.70;;;;;;;9.81;74.57;100722.01;108789;1274;21955;-82
2022/10/26 03:38:46;;;;;;;19.60;17.70;;;;;;;9.78;74.51;100726.60;108726;1274;21952;-81
2022/10/26 03:41:15;;;;;;;22.90;19.00;;;;;;;9.73;74.26;100726.90;108777;1274;23132;-82
2022/10/26 03:43:44;;;;;;;18.70;16.80;;;;;;;9.69;74.28;100727.02;108783;1274;21951;-82
2022/10/26 03:46:13;;;;;;;21.00;18.40;;;;;;;9.66;74.25;100729.21;108767;1274;21948;-82
2022/10/26 03:48:42;;;;;;;21.40;18.10;;;;;;;9.62;74.30;100726.88;108752;1275;21945;-81
2022/10/26 03:51:11;;;;;;;22.90;20.70;;;;;;;9.57;74.41;100728.05;108522;1275;23072;-80
2022/10/26 03:53:40;;;;;;;22.10;20.00;;;;;;;9.56;74.46;100729.13;108798;1274;22242;-80
2022/10/26 03:56:08;;;;;;;20.30;18.30;;;;;;;9.53;74.56;100730.60;108794;1274;21989;-80
2022/10/26 03:58:37;;;;;;;22.70;20.30;;;;;;;9.52;74.63;100733.56;108854;1274;21953;-79
2022/10/26 04:01:06;;;;;;;22.90;20.30;;;;;;;9.51;74.59;100737.07;107944;1264;1098217;-80
2022/10/26 04:03:35;;;;;;;25.20;22.50;;;;;;;9.47;74.40;100738.23;108783;1274;24319;-80
2022/10/26 04:06:04;;;;;;;24.30;21.70;;;;;;;9.36;74.12;100744.09;108721;1274;21991;-80
2022/10/26 04:08:33;;;;;;;25.80;23.10;;;;;;;9.25;74.16;100743.16;108759;1274;24045;-81
2022/10/26 04:11:02;;;;;;;24.30;21.80;;;;;;;9.20;74.45;100741.20;108763;1274;23219;-80
2022/10/26 04:13:32;;;;;;;26.70;22.00;;;;;;;9.17;74.59;100739.88;108710;1274;22334;-82
2022/10/26 04:16:01;;;;;;;25.70;23.00;;;;;;;9.14;74.79;100735.27;108720;1274;23827;-81
2022/10/26 04:18:30;;;;;;;29.60;26.40;;;;;;;9.14;74.96;100739.63;108430;1280;22012;-82
2022/10/26 04:21:02;;;;;;;30.90;26.50;;;;;;;9.15;75.05;100738.54;108675;1280;21932;-82
2022/10/26 04:23:30;;;;;;;;;;;;;;;9.14;75.01;100742.91;108425;1280;22006;-82
2022/10/26 04:25:59;;;;;;;36.80;25.40;;;;;;;9.02;75.09;100743.58;108568;1281;21943;-82
2022/10/26 04:28:28;;;;;;;41.40;22.10;;;;;;;8.96;74.90;100745.63;108377;1275;22395;-80
2022/10/26 04:30:57;;;;;;;31.30;22.20;;;;;;;8.88;74.81;100750.34;108524;1281;21952;-80
2022/10/26 04:33:25;;;;;;;25.90;20.60;;;;;;;8.80;74.79;100748.80;108391;1283;22299;-80
2022/10/26 04:36:00;;;;;;;30.90;21.30;;;;;;;8.74;75.01;100752.23;108342;1265;22838;-80
2022/10/26 04:38:28;;;;;;;27.70;20.60;;;;;;;8.72;75.30;100752.46;108283;1284;21964;-80
2022/10/26 04:40:57;;;;;;;22.20;19.30;;;;;;;8.72;75.54;100748.63;108334;1286;24420;-80
2022/10/26 04:43:26;;;;;;;24.90;20.60;;;;;;;8.74;75.61;100751.36;108163;1286;21978;-80
2022/10/26 04:45:56;;;;;;;27.70;23.00;;;;;;;8.77;75.73;100750.24;108052;1286;23714;-81
2022/10/26 04:48:25;;;;;;;28.50;20.00;;;;;;;8.81;75.86;100751.54;108397;1270;23864;-80
2022/10/26 04:50:58;;;;;;;25.50;21.40;;;;;;;8.84;75.86;100748.52;108416;1280;21947;-81
2022/10/26 04:53:27;;;;;;;47.60;41.70;;;;;;;8.85;75.86;100750.77;108365;1283;24543;-81
2022/10/26 04:56:00;;;;;;;23.30;19.20;;;;;;;8.84;75.70;100754.78;108500;1274;21935;-79
2022/10/26 04:58:29;;;;;;;25.10;19.10;;;;;;;8.77;75.44;100757.36;108819;1274;23041;-83
2022/10/26 05:01:01;;;;;;;25.70;19.40;;;;;;;8.72;75.49;100760.09;109019;1274;21941;-82
2022/10/26 05:03:30;;;;;;;20.60;17.90;;;;;;;8.70;75.70;100760.13;108819;1274;21937;-80
2022/10/26 05:05:59;;;;;;;22.00;18.10;;;;;;;8.68;75.77;100759.66;108781;1274;22035;-81
2022/10/26 05:08:28;;;;;;;23.10;19.40;;;;;;;8.65;75.72;100759.90;108839;1274;23703;-79
2022/10/26 05:10:57;;;;;;;21.80;16.60;;;;;;;8.60;75.68;100760.53;108943;1260;23787;-80
2022/10/26 05:13:26;;;;;;;20.00;17.80;;;;;;;8.54;75.66;100762.39;108785;1274;22140;-80
2022/10/26 05:16:00;;;;;;;23.70;19.10;;;;;;;8.53;75.89;100762.61;108828;1274;21950;-79
2022/10/26 05:18:28;;;;;;;18.40;16.20;;;;;;;8.53;75.83;100764.86;108832;1275;23665;-79
2022/10/26 05:20:57;;;;;;;31.00;17.50;;;;;;;8.45;75.53;100763.64;108842;1259;23425;-81
2022/10/26 05:23:26;;;;;;;25.30;17.50;;;;;;;8.35;75.62;100762.98;108812;1274;23739;-81
2022/10/26 05:25:55;;;;;;;22.10;15.90;;;;;;;8.29;75.78;100764.67;108830;1274;21931;-81
2022/10/26 05:28:24;;;;;;;29.90;16.10;;;;;;;8.25;75.85;100762.15;108713;1280;23699;-80
2022/10/26 05:30:53;;;;;;;21.40;18.20;;;;;;;8.22;75.99;100763.61;108569;1271;23109;-80
2022/10/26 05:33:21;;;;;;;24.30;17.70;;;;;;;8.18;75.99;100768.37;108528;1280;23795;-82
2022/10/26 05:35:54;;;;;;;23.90;16.20;;;;;;;8.14;76.01;100769.49;108654;1275;21939;-80
2022/10/26 05:38:23;;;;;;;34.10;17.30;;;;;;;8.06;75.99;100774.34;108594;1268;23696;-79
2022/10/26 05:40:53;;;;;;;22.70;17.40;;;;;;;7.97;75.92;100777.81;108139;1284;23069;-79
2022/10/26 05:43:23;;;;;;;24.60;17.70;;;;;;;7.91;76.13;100774.81;108133;1286;22012;-79
2022/10/26 05:45:53;;;;;;;26.00;20.90;;;;;;;7.89;76.42;100774.34;108072;1280;21941;-82
2022/10/26 05:48:22;;;;;;;24.40;20.40;;;;;;;7.89;76.65;100779.19;108441;1269;21940;-79
2022/10/26 05:50:52;;;;;;;29.80;23.10;;;;;;;7.89;76.71;100779.71;108669;1281;23003;-81
2022/10/26 05:53:21;;;;;;;33.70;21.70;;;;;;;7.91;76.86;100783.65;108653;1278;23696;-81
2022/10/26 05:55:50;;;;;;;34.20;19.90;;;;;;;7.94;76.98;100782.36;108492;1280;21969;-80
2022/10/26 05:58:19;;;;;;;43.50;20.60;;;;;;;7.95;77.03;100782.73;108436;1274;23005;-80
2022/10/26 06:01:34;;;;;;;35.30;21.50;;;;;;;7.93;77.01;100785.70;108439;1280;23112;-80
2022/10/26 06:04:29;;;;;;;36.30;23.80;;;;;;;7.92;77.25;100785.89;108471;1280;22457;-80
2022/10/26 06:06:58;;;;;;;27.50;18.30;;;;;;;7.95;77.40;100791.02;108628;1279;22046;-80
2022/10/26 06:09:27;;;;;;;38.20;16.40;;;;;;;7.95;77.29;100799.01;108474;1280;21947;-80
2022/10/26 06:11:56;;;;;;;37.90;19.70;;;;;;;7.89;77.18;100797.73;108477;1279;21959;-81
2022/10/26 06:14:26;;;;;;;37.30;19.80;;;;;;;7.86;77.24;100798.83;108480;1280;23067;-81
2022/10/26 06:22:34;;;;;;;23.00;16.90;;;;;;;7.86;77.94;100803.50;108748;1280;24389;-79
2022/10/26 06:25:35;;;;;;;24.30;17.80;;;;;;;7.88;77.99;100805.38;108723;1280;21954;-80
2022/10/26 06:28:34;;;;;;;23.00;16.40;;;;;;;7.91;78.16;100811.20;108481;1271;23585;-81
2022/10/26 06:31:03;;;;;;;29.00;17.90;;;;;;;7.95;78.27;100810.94;108604;1280;21927;-80
2022/10/26 06:33:33;;;;;;;25.60;16.90;;;;;;;8.00;78.21;100806.70;108368;1280;21953;-80
2022/10/26 06:36:22;;;;;;;27.00;17.00;;;;;;;8.06;78.28;100807.44;108675;1275;21937;-80
2022/10/26 06:39:03;;;;;;;22.60;17.90;;;;;;;8.12;78.42;100808.54;108749;1274;22377;-78
2022/10/26 06:41:35;;;;;;;24.60;16.40;;;;;;;8.18;78.37;100812.58;108722;1273;23076;-78
2022/10/26 06:44:05;;;;;;;26.10;17.00;;;;;;;8.22;78.26;100808.67;108786;1274;21957;-79
2022/10/26 06:46:55;;;;;;;27.80;17.90;;;;;;;8.24;78.26;100810.21;108790;1274;23725;-78
2022/10/26 06:50:00;;;;;;;22.20;18.80;;;;;;;8.28;78.36;100815.33;108850;1274;21955;-80
2022/10/26 06:52:43;;;;;;;34.00;19.90;;;;;;;8.34;78.47;100819.70;108839;1275;22703;-80
2022/10/26 06:55:16;;;;;;;39.70;24.00;;;;;;;8.39;78.46;100819.45;108584;1274;22402;-79
2022/10/26 06:57:45;;;;;;;37.50;24.40;;;;;;;8.46;78.53;100817.39;108871;1274;21935;-77
2022/10/26 07:00:23;;;;;;;46.30;27.30;;;;;;;8.55;78.47;100820.34;108890;1274;21945;-78
2022/10/26 07:02:53;;;;;;;54.90;29.60;;;;;;;8.59;78.54;100821.27;108885;1274;21958;-78
2022/10/26 07:05:22;;;;;;;43.50;29.40;;;;;;;8.65;78.54;100826.18;108753;1274;22426;-78
2022/10/26 07:07:51;;;;;;;44.10;28.70;;;;;;;8.70;78.52;100829.36;108612;1274;23060;-78
2022/10/26 07:10:21;;;;;;;45.10;29.10;;;;;;;8.76;78.58;100831.13;108590;1274;21942;-78
2022/10/26 07:12:50;;;;;;;38.40;26.00;;;;;;;8.85;78.73;100837.20;108837;1273;23583;-80
2022/10/26 07:15:19;;;;;;;36.20;25.90;;;;;;;8.95;78.93;100843.70;108676;1274;23057;-83
2022/10/26 07:17:48;;;;;;;41.10;26.80;;;;;;;9.05;78.88;100847.83;108586;1274;22243;-80
2022/10/26 07:20:20;;;;;;;36.20;25.40;;;;;;;9.13;78.81;100850.59;108652;1274;22029;-81
2022/10/26 07:22:56;;;;;;;32.70;26.00;;;;;;;9.24;79.05;100848.77;108516;1274;23678;-81
2022/10/26 07:25:25;;;;;;;35.70;25.40;;;;;;;9.38;79.20;100849.81;108580;1274;21968;-81
2022/10/26 07:27:59;;;;;;;31.40;24.00;;;;;;;9.53;79.20;100852.73;108581;1274;23544;-80
2022/10/26 07:30:29;;;;;;;41.70;30.50;;;;;;;9.69;79.30;100851.97;108463;1274;24352;-81
2022/10/26 07:33:19;;;;;;;39.90;30.40;;;;;;;9.85;79.28;100852.95;108595;1274;21936;-79
2022/10/26 07:35:47;;;;;;;46.10;30.10;;;;;;;10.03;79.21;100852.64;108724;1273;23029;-80
2022/10/26 07:38:16;;;;;;;128.50;52.80;;;;;;;10.21;79.05;100854.58;108180;1280;22417;-80
2022/10/26 07:40:45;;;;;;;238.60;85.90;;;;;;;10.39;79.10;100853.03;108191;1278;21984;-80
2022/10/26 07:43:15;;;;;;;82.70;38.10;;;;;;;10.59;79.07;100856.66;108212;1280;22267;-80
2022/10/26 07:45:44;;;;;;;73.40;29.80;;;;;;;10.78;78.90;100854.16;108377;1280;23052;-81
2022/10/26 07:48:13;;;;;;;75.30;33.20;;;;;;;10.98;78.88;100856.66;108390;1279;22097;-81
2022/10/26 07:50:41;;;;;;;42.00;26.20;;;;;;;11.23;79.07;100859.02;108114;1280;23686;-82
2022/10/26 07:53:10;;;;;;;39.50;26.50;;;;;;;11.55;79.43;100860.04;108274;1280;21941;-82
2022/10/26 07:55:39;;;;;;;62.40;27.20;;;;;;;11.89;79.29;100863.10;108385;1274;21984;-81
2022/10/26 07:58:08;;;;;;;54.10;24.90;;;;;;;12.14;78.23;100862.40;108678;1272;21972;-82
2022/10/26 08:00:36;;;;;;;63.20;29.10;;;;;;;12.34;77.68;100860.96;108650;1273;21939;-81
2022/10/26 08:03:05;;;;;;;77.70;29.10;;;;;;;12.59;77.33;100862.64;108777;1274;21952;-82
2022/10/26 08:05:34;;;;;;;103.80;31.10;;;;;;;12.82;76.74;100858.98;108637;1275;21935;-82
2022/10/26 08:08:04;;;;;;;45.30;26.30;;;;;;;12.99;76.10;100859.68;108591;1274;21900;-82
2022/10/26 08:10:33;;;;;;;71.50;26.00;;;;;;;13.16;75.50;100866.73;108512;1267;23094;-82
2022/10/26 08:13:02;;;;;;;34.00;23.70;;;;;;;13.33;75.19;100865.72;108602;1274;24287;-81
2022/10/26 08:15:31;;;;;;;27.40;23.20;;;;;;;13.49;74.44;100866.27;108514;1274;23683;-82
2022/10/26 08:17:59;;;;;;;23.30;20.80;;;;;;;13.61;73.77;100869.62;108696;1274;24062;-82
2022/10/26 08:20:28;;;;;;;21.90;16.00;;;;;;;13.67;73.04;100870.06;108572;1274;22093;-81
2022/10/26 08:23:00;;;;;;;30.60;24.40;;;;;;;13.75;72.81;100868.49;108791;1274;22535;-80
2022/10/26 08:25:29;;;;;;;17.60;15.70;;;;;;;13.83;72.33;100867.98;108589;1275;21969;-82
2022/10/26 08:28:02;;;;;;;18.60;14.70;;;;;;;13.91;72.28;100867.98;108731;1274;21952;-81
2022/10/26 08:30:31;;;;;;;16.90;15.20;;;;;;;14.02;72.12;100866.99;108572;1263;23036;-81
2022/10/26 08:33:04;;;;;;;19.90;13.50;;;;;;;14.13;71.87;100868.63;108684;1275;23586;-82
2022/10/26 08:35:33;;;;;;;19.60;14.40;;;;;;;14.25;71.73;100863.37;108724;1274;23774;-82
2022/10/26 08:38:02;;;;;;;18.30;16.50;;;;;;;14.37;71.50;100866.49;108785;1274;21949;-81
2022/10/26 08:40:36;;;;;;;17.00;13.60;;;;;;;14.46;70.87;100868.01;108523;1274;22883;-82
2022/10/26 08:43:30;;;;;;;16.80;12.50;;;;;;;14.52;70.54;100872.11;108478;1274;21936;-81
2022/10/26 08:46:31;;;;;;;14.30;12.50;;;;;;;14.54;70.02;100875.71;108568;1271;21937;-81
2022/10/26 08:49:27;;;;;;;14.80;11.00;;;;;;;14.53;69.79;100876.42;108754;1275;22001;-82
2022/10/26 08:52:01;;;;;;;16.00;11.10;;;;;;;14.52;69.61;100877.55;108519;1275;22093;-79
2022/10/26 08:54:39;;;;;;;20.20;13.60;;;;;;;14.54;69.62;100878.35;108672;1274;21961;-79
2022/10/26 08:57:20;;;;;;;23.70;17.40;;;;;;;14.59;69.71;100876.90;108635;1275;21976;-85
2022/10/26 08:59:58;;;;;;;14.90;13.30;;;;;;;14.68;69.84;100884.18;108336;1280;21960;-78
2022/10/26 09:02:27;;;;;;;20.10;12.50;;;;;;;14.77;69.81;100883.77;108399;1280;21929;-78
2022/10/26 09:04:58;;;;;;;12.90;11.30;;;;;;;14.88;69.74;100883.80;108338;1281;23111;-84
2022/10/26 09:07:56;;;;;;;14.50;12.30;;;;;;;14.94;69.25;100886.31;108266;1280;21945;-83
2022/10/26 09:10:49;;;;;;;17.40;11.20;;;;;;;14.91;68.85;100881.34;108316;1280;21977;-84
2022/10/26 09:13:41;;;;;;;18.10;11.30;;;;;;;14.93;68.83;100880.58;108102;1285;23728;-83
2022/10/26 09:16:44;;;;;;;17.80;12.00;;;;;;;14.99;68.88;100878.89;107972;1286;23606;-83
2022/10/26 09:19:57;;;;;;;12.40;10.00;;;;;;;15.01;68.68;100878.21;108384;1277;21976;-82
2022/10/26 09:22:44;;;;;;;11.20;9.50;;;;;;;15.03;68.42;100882.50;108481;1276;21963;-82
2022/10/26 09:25:22;;;;;;;16.10;11.10;;;;;;;15.09;68.51;100888.57;108527;1272;23789;-83
2022/10/26 09:27:59;;;;;;;16.90;9.70;;;;;;;15.20;68.66;100889.59;108475;1277;21932;-82
2022/10/26 09:30:29;;;;;;;14.90;8.90;;;;;;;15.34;68.48;100888.73;108261;1277;21933;-84
2022/10/26 09:33:21;;;;;;;14.20;9.40;;;;;;;15.47;68.11;100885.14;108769;1268;22023;-84
2022/10/26 09:36:00;;;;;;;13.70;10.00;;;;;;;15.62;68.05;100882.99;108816;1274;21956;-80
2022/10/26 09:38:40;;;;;;;12.10;7.90;;;;;;;15.76;67.60;100882.32;109100;1273;21936;-84
2022/10/26 09:41:39;;;;;;;10.50;8.00;;;;;;;15.89;67.26;100882.52;108724;1272;21960;-84
2022/10/26 09:44:30;;;;;;;17.00;8.50;;;;;;;16.00;66.78;100878.98;108840;1274;21923;-84
2022/10/26 09:47:20;;;;;;;13.40;8.70;;;;;;;16.14;66.56;100878.27;108605;1273;22996;-84
2022/10/26 09:50:05;;;;;;;12.60;7.70;;;;;;;16.32;66.30;100883.41;108737;1274;23088;-85
2022/10/26 09:52:34;;;;;;;13.80;8.50;;;;;;;16.51;65.80;100886.64;108295;1280;23843;-85
2022/10/26 09:55:03;;;;;;;10.10;7.30;;;;;;;16.71;65.34;100890.65;108187;1280;21935;-85
2022/10/26 09:57:32;;;;;;;10.90;7.60;;;;;;;16.88;64.67;100894.80;108394;1280;22100;-84
2022/10/26 10:00:01;;;;;;;14.10;7.60;;;;;;;17.05;64.06;100890.20;108462;1280;23761;-82
2022/10/26 10:02:44;;;;;;;10.40;7.60;;;;;;;17.20;63.44;100894.63;108164;1280;21938;-83
2022/10/26 10:05:33;;;;;;;11.90;6.90;;;;;;;17.40;63.24;100896.16;108192;1280;21936;-84
2022/10/26 10:08:26;;;;;;;10.00;7.20;;;;;;;17.64;62.78;100894.20;108357;1279;22005;-84
2022/10/26 10:11:09;;;;;;;11.00;7.00;;;;;;;17.92;62.50;100894.33;108412;1273;21924;-84
2022/10/26 10:13:45;;;;;;;12.00;6.20;;;;;;;18.22;61.48;100897.07;108594;1274;23614;-83
2022/10/26 10:16:22;;;;;;;8.40;5.90;;;;;;;18.41;59.97;100900.19;108911;1275;21929;-83
2022/10/26 10:18:58;;;;;;;9.10;6.50;;;;;;;18.62;59.68;100894.08;108726;1274;24287;-85
2022/10/26 10:21:37;;;;;;;11.20;6.80;;;;;;;18.91;59.06;100891.09;108889;1274;21942;-85
2022/10/26 10:24:52;;;;;;;7.80;6.50;;;;;;;19.20;58.50;100886.75;108746;1274;23839;-85
2022/10/26 10:27:22;;;;;;;9.50;6.00;;;;;;;19.47;57.59;100889.02;108124;1283;21917;-85
2022/10/26 10:30:00;;;;;;;12.50;8.40;;;;;;;19.62;56.40;100889.94;108323;1277;22094;-84
2022/10/26 10:32:32;;;;;;;;;;;;;;;19.68;55.72;100887.75;108234;1281;22149;-84
2022/10/26 10:35:24;;;;;;;11.00;7.30;;;;;;;19.72;56.07;100883.80;108189;1283;21971;-85
2022/10/26 10:37:53;;;;;;;12.10;8.00;;;;;;;19.99;56.03;100888.36;108253;1283;22939;-87
2022/10/26 10:40:26;;;;;;;13.00;6.40;;;;;;;20.12;54.80;100887.80;108240;1282;21957;-85
2022/10/26 10:43:13;;;;;;;14.40;7.70;;;;;;;20.19;54.78;100888.95;108385;1282;22004;-86
2022/10/26 10:45:48;;;;;;;13.10;7.50;;;;;;;20.30;54.83;100889.58;108082;1288;23787;-86
2022/10/26 10:48:24;;;;;;;7.30;6.30;;;;;;;20.40;54.47;100886.77;107859;1287;23128;-85
2022/10/26 10:51:11;;;;;;;9.90;6.10;;;;;;;20.38;53.29;100887.08;107075;1294;22023;-85
2022/10/26 10:53:50;;;;;;;9.40;6.20;;;;;;;20.33;53.33;100886.20;106844;1295;21973;-83
2022/10/26 10:56:41;;;;;;;7.40;4.90;;;;;;;20.32;53.14;100886.42;107420;1292;22442;-85
2022/10/26 11:00:02;;;;;;;8.30;5.60;;;;;;;20.17;52.37;100882.34;107428;1292;23074;-85
2022/10/26 11:03:07;;;;;;;9.90;5.80;;;;;;;19.76;51.68;100880.40;107146;1294;21937;-86
2022/10/26 11:05:50;;;;;;;11.90;5.60;;;;;;;19.52;52.48;100877.56;108138;1286;23693;-86
2022/10/26 11:08:36;;;;;;;9.60;5.50;;;;;;;19.38;53.03;100876.74;108097;1281;21998;-85
2022/10/26 11:11:27;;;;;;;11.40;5.70;;;;;;;19.24;53.53;100879.42;108213;1280;21964;-87
2022/10/26 11:14:19;;;;;;;7.60;4.80;;;;;;;19.10;53.77;100880.88;108162;1280;21957;-84
2022/10/26 11:17:11;;;;;;;8.20;4.50;;;;;;;18.87;53.68;100880.91;108188;1280;23089;-84
2022/10/26 11:19:53;;;;;;;8.20;4.50;;;;;;;18.69;54.31;100880.81;108268;1280;23594;-82
2022/10/26 11:22:40;;;;;;;8.50;4.50;;;;;;;18.57;54.56;100883.85;108232;1280;23069;-83
2022/10/26 11:25:21;;;;;;;9.60;4.20;;;;;;;18.44;54.69;100884.33;108199;1279;22375;-84
2022/10/26 11:28:09;;;;;;;8.70;4.40;;;;;;;18.30;54.85;100884.80;108263;1280;21979;-84
2022/10/26 11:30:48;;;;;;;8.80;4.70;;;;;;;18.17;55.16;100881.91;108328;1280;22168;-82
2022/10/26 11:33:35;;;;;;;7.90;4.90;;;;;;;18.08;55.64;100879.50;108273;1274;23047;-81
2022/10/26 11:36:11;;;;;;;12.80;5.70;;;;;;;18.02;56.09;100879.80;108684;1274;21932;-80
2022/10/26 11:38:52;;;;;;;8.90;5.10;;;;;;;18.01;56.36;100885.39;108641;1274;21936;-79
2022/10/26 11:41:36;;;;;;;9.40;5.00;;;;;;;17.95;56.44;100886.92;108673;1272;22057;-81
2022/10/26 11:44:16;;;;;;;14.20;5.50;;;;;;;17.88;56.49;100888.41;108547;1272;23138;-83
2022/10/26 11:47:00;;;;;;;9.70;4.80;;;;;;;17.82;56.52;100894.39;108774;1272;21925;-81
2022/10/26 11:49:41;;;;;;;8.60;5.30;;;;;;;17.71;56.42;100891.13;108923;1271;21940;-81
2022/10/26 11:52:28;;;;;;;10.90;4.70;;;;;;;17.62;56.50;100888.38;108840;1272;21981;-82
2022/10/26 11:55:03;;;;;;;6.50;4.10;;;;;;;17.51;56.57;100884.54;108568;1272;23689;-79
2022/10/26 11:57:35;;;;;;;8.30;4.50;;;;;;;17.47;56.74;100887.79;108534;1272;21948;-80